createdAt,value
2023-01-15T00:00:19.667Z,97612.50
2023-01-15T00:02:47.840Z,97619.28
2023-01-15T00:05:19.130Z,97600.41
2023-01-15T00:07:51.957Z,97571.00
2023-01-15T00:10:20.406Z,97576.56
2023-01-15T00:12:48.777Z,97563.34
2023-01-15T00:15:17.655Z,97543.97
2023-01-15T00:17:46.044Z,97537.31
2023-01-15T00:20:14.716Z,97524.88
2023-01-15T00:22:43.097Z,97527.50
2023-01-15T00:25:45.294Z,97507.94
2023-01-15T00:28:15.239Z,97507.13
2023-01-15T00:30:49.618Z,97477.66
2023-01-15T00:33:17.974Z,97471.31
2023-01-15T00:35:48.987Z,97454.53
2023-01-15T00:38:17.307Z,97460.06
2023-01-15T00:40:53.119Z,97474.91
2023-01-15T00:43:21.352Z,97475.13
2023-01-15T00:45:55.658Z,97460.56
2023-01-15T00:48:24.043Z,97444.16
2023-01-15T00:50:52.725Z,97432.00
2023-01-15T00:53:21.099Z,97414.56
2023-01-15T00:55:51.221Z,97396.03
2023-01-15T00:58:19.417Z,97397.88
2023-01-15T01:00:48.212Z,97388.88
2023-01-15T01:03:16.506Z,97366.88
2023-01-15T01:05:44.858Z,97395.22
2023-01-15T01:08:14.357Z,97378.28
2023-01-15T01:10:46.431Z,97353.03
2023-01-15T01:13:16.411Z,97349.16
2023-01-15T01:15:46.833Z,97361.34
2023-01-15T01:18:15.088Z,97335.19
2023-01-15T01:20:43.387Z,97324.38
2023-01-15T01:23:11.605Z,97314.81
2023-01-15T01:25:43.246Z,97325.16
2023-01-15T01:28:11.882Z,97304.53
2023-01-15T01:30:41.705Z,97293.16
2023-01-15T01:33:10.184Z,97301.09
2023-01-15T01:35:41.249Z,97293.16
2023-01-15T01:38:10.690Z,97278.59
2023-01-15T01:40:41.678Z,97277.00
2023-01-15T01:43:21.028Z,97273.06
2023-01-15T01:45:50.967Z,97248.16
2023-01-15T01:48:20.844Z,97250.03
2023-01-15T01:50:51.028Z,97232.84
2023-01-15T01:53:24.405Z,97224.41
2023-01-15T01:55:54.171Z,97243.19
2023-01-15T01:58:24.489Z,97243.19
2023-01-15T02:00:54.860Z,97242.38
2023-01-15T02:03:29.196Z,97244.81
2023-01-15T02:06:00.971Z,97210.59
2023-01-15T02:08:29.657Z,97226.75
2023-01-15T02:10:58.234Z,97220.41
2023-01-15T02:13:33.533Z,97197.34
2023-01-15T02:16:11.333Z,97218.31
2023-01-15T02:18:48.968Z,97219.91
2023-01-15T02:21:28.865Z,97205.63
2023-01-15T02:24:16.348Z,97207.22
2023-01-15T02:27:07.216Z,97194.81
2023-01-15T02:29:56.773Z,97198.28
2023-01-15T02:32:42.024Z,97202.53
2023-01-15T02:35:42.519Z,97184.78
2023-01-15T02:38:21.999Z,97169.94
2023-01-15T02:40:55.703Z,97190.66
2023-01-15T02:43:42.228Z,97190.56
2023-01-15T02:46:12.125Z,97189.28
2023-01-15T02:48:42.956Z,97190.66
2023-01-15T02:51:15.373Z,97199.72
2023-01-15T02:53:48.142Z,97199.72
2023-01-15T02:56:18.858Z,97197.06
2023-01-15T02:58:51.887Z,97202.59
2023-01-15T03:01:23.559Z,97200.75
2023-01-15T03:04:02.170Z,97206.06
2023-01-15T03:06:45.681Z,97195.47
2023-01-15T03:09:15.253Z,97194.16
2023-01-15T03:11:50.995Z,97200.56
2023-01-15T03:14:30.697Z,97202.72
2023-01-15T03:17:02.105Z,97214.69
2023-01-15T03:19:36.110Z,97202.00
2023-01-15T03:22:08.430Z,97203.88
2023-01-15T03:24:43.531Z,97206.84
2023-01-15T03:27:12.353Z,97193.09
2023-01-15T03:29:47.309Z,97180.13
2023-01-15T03:32:17.431Z,97173.00
2023-01-15T03:34:47.821Z,97170.66
2023-01-15T03:37:16.504Z,97160.59
2023-01-15T03:39:45.230Z,97163.56
2023-01-15T03:42:29.139Z,97157.75
2023-01-15T03:45:07.985Z,97149.81
2023-01-15T03:47:47.536Z,97169.13
2023-01-15T03:50:23.999Z,97163.84
2023-01-15T03:53:04.867Z,97169.13
2023-01-15T03:55:44.667Z,97184.28
2023-01-15T03:58:21.638Z,97181.06
2023-01-15T04:00:54.310Z,97194.00
2023-01-15T04:03:25.783Z,97186.25
2023-01-15T04:05:57.221Z,97176.41
2023-01-15T04:08:37.732Z,97157.53
2023-01-15T04:11:07.024Z,97156.19
2023-01-15T04:13:35.893Z,97150.03
2023-01-15T04:16:06.420Z,97161.69
2023-01-15T04:18:40.339Z,97162.66
2023-01-15T04:21:08.644Z,97160.22
2023-01-15T04:23:42.540Z,97159.91
2023-01-15T04:26:10.837Z,97160.34
2023-01-15T04:28:39.121Z,97166.38
2023-01-15T04:31:08.995Z,97152.69
2023-01-15T04:33:37.528Z,97157.09
2023-01-15T04:36:06.634Z,97158.81
2023-01-15T04:38:36.258Z,97151.78
2023-01-15T04:41:23.187Z,97159.66
2023-01-15T04:44:10.062Z,97163.06
2023-01-15T04:46:41.871Z,97163.44
2023-01-15T04:49:12.304Z,97160.00
2023-01-15T04:51:41.045Z,97162.09
2023-01-15T04:54:09.900Z,97164.19
2023-01-15T04:56:41.071Z,97153.28
2023-01-15T04:59:10.758Z,97165.38
2023-01-15T05:01:48.561Z,97159.81
2023-01-15T05:04:26.625Z,97174.31
2023-01-15T05:06:54.871Z,97168.13
2023-01-15T05:09:23.083Z,97168.13
2023-01-15T05:11:51.242Z,97173.88
2023-01-15T05:14:19.876Z,97170.94
2023-01-15T05:16:49.631Z,97171.41
2023-01-15T05:19:17.942Z,97165.22
2023-01-15T05:21:46.616Z,97164.66
2023-01-15T05:24:17.140Z,97164.38
2023-01-15T05:26:45.679Z,97164.97
2023-01-15T05:29:14.614Z,97175.06
2023-01-15T05:31:46.281Z,97177.91
2023-01-15T05:34:16.441Z,97174.44
2023-01-15T05:36:45.855Z,97173.88
2023-01-15T05:39:14.120Z,97174.09
2023-01-15T05:41:51.353Z,97177.78
2023-01-15T05:44:23.119Z,97189.97
2023-01-15T05:46:52.217Z,97189.16
2023-01-15T05:49:27.107Z,97193.66
2023-01-15T05:51:55.958Z,97189.41
2023-01-15T05:54:26.373Z,97189.41
2023-01-15T05:56:56.486Z,97192.84
2023-01-15T05:59:26.710Z,97193.66
2023-01-15T06:01:55.310Z,97197.09
2023-01-15T06:04:25.565Z,97202.84
2023-01-15T06:06:55.735Z,97205.72
2023-01-15T06:09:24.177Z,97198.84
2023-01-15T06:11:53.825Z,97196.47
2023-01-15T06:14:25.355Z,97202.44
2023-01-15T06:16:53.619Z,97201.06
2023-01-15T06:19:21.957Z,97208.19
2023-01-15T06:21:51.804Z,97201.88
2023-01-15T06:24:20.896Z,97214.41
2023-01-15T06:26:49.231Z,97212.63
2023-01-15T06:29:19.067Z,97212.72
2023-01-15T06:31:48.357Z,97209.94
2023-01-15T06:34:16.991Z,97211.16
2023-01-15T06:36:45.394Z,97212.84
2023-01-15T06:39:15.124Z,97212.13
2023-01-15T06:42:00.927Z,97207.97
2023-01-15T06:44:46.762Z,97201.94
2023-01-15T06:47:24.220Z,97203.78
2023-01-15T06:49:55.120Z,97207.00
2023-01-15T06:52:24.620Z,97211.81
2023-01-15T06:54:55.012Z,97209.16
2023-01-15T06:57:23.586Z,97216.94
2023-01-15T06:59:59.863Z,97210.38
2023-01-15T07:02:28.140Z,97210.59
2023-01-15T07:04:58.021Z,97213.81
2023-01-15T07:07:26.649Z,97205.81
2023-01-15T07:09:57.042Z,97209.00
2023-01-15T07:12:25.308Z,97211.66
2023-01-15T07:14:54.143Z,97202.84
2023-01-15T07:17:22.444Z,97198.25
2023-01-15T07:19:52.141Z,97196.09
2023-01-15T07:22:20.458Z,97196.81
2023-01-15T07:24:48.993Z,97193.03
2023-01-15T07:27:18.663Z,97202.50
2023-01-15T07:29:48.363Z,97197.69
2023-01-15T07:32:17.001Z,97198.19
2023-01-15T07:34:46.115Z,97190.47
2023-01-15T07:37:14.317Z,97197.59
2023-01-15T07:39:42.552Z,97211.28
2023-01-15T07:42:37.810Z,97216.00
2023-01-15T07:45:27.388Z,97209.38
2023-01-15T07:48:13.385Z,97206.97
2023-01-15T07:50:41.626Z,97205.84
2023-01-15T07:53:09.796Z,97217.44
2023-01-15T07:55:38.263Z,97207.03
2023-01-15T07:58:06.536Z,97211.94
2023-01-15T08:00:36.151Z,97217.22
2023-01-15T08:03:07.557Z,97216.97
2023-01-15T08:05:35.779Z,97220.66
2023-01-15T08:08:06.610Z,97225.72
2023-01-15T08:10:59.039Z,97217.22
2023-01-15T08:13:44.744Z,97213.53
2023-01-15T08:16:15.353Z,97223.88
2023-01-15T08:18:52.583Z,97223.88
2023-01-15T08:21:21.795Z,97215.59
2023-01-15T08:24:26.078Z,97231.34
2023-01-15T08:26:55.187Z,97234.53
2023-01-15T08:29:23.919Z,97235.09
2023-01-15T08:31:53.784Z,97234.63
2023-01-15T08:34:22.388Z,97229.91
2023-01-15T08:36:57.605Z,97227.03
2023-01-15T08:39:25.907Z,97221.25
2023-01-15T08:41:54.268Z,97221.81
2023-01-15T08:44:23.769Z,97223.97
2023-01-15T08:46:55.504Z,97228.34
2023-01-15T08:49:23.969Z,97224.16
2023-01-15T08:51:53.466Z,97238.28
2023-01-15T08:54:24.618Z,97253.97
2023-01-15T08:56:58.385Z,97249.91
2023-01-15T08:59:27.095Z,97249.50
2023-01-15T09:01:56.978Z,97249.91
2023-01-15T09:04:25.649Z,97247.19
2023-01-15T09:06:54.307Z,97259.78
2023-01-15T09:09:22.734Z,97259.91
2023-01-15T09:11:51.063Z,97265.84
2023-01-15T09:15:00.292Z,97269.38
2023-01-15T09:17:10.297Z,97265.19
2023-01-15T09:19:39.155Z,97274.00
2023-01-15T09:22:07.626Z,97264.19
2023-01-15T09:24:35.931Z,97278.91
2023-01-15T09:27:04.676Z,97278.94
2023-01-15T09:29:34.377Z,97272.91
2023-01-15T09:32:02.827Z,97274.59
2023-01-15T09:34:32.601Z,97272.25
2023-01-15T09:37:02.385Z,97277.63
2023-01-15T09:39:30.878Z,97266.22
2023-01-15T09:42:16.406Z,97274.81
2023-01-15T09:45:08.979Z,97262.88
2023-01-15T09:47:44.620Z,97262.63
2023-01-15T09:50:25.416Z,97255.72
2023-01-15T09:53:12.052Z,97277.00
2023-01-15T09:55:46.978Z,97277.94
2023-01-15T09:58:18.118Z,97271.09
2023-01-15T10:00:48.682Z,97278.19
2023-01-15T10:03:27.050Z,97273.19
2023-01-15T10:06:04.191Z,97275.66
2023-01-15T10:08:36.242Z,97265.63
2023-01-15T10:11:07.475Z,97259.84
2023-01-15T10:13:44.594Z,97262.97
2023-01-15T10:16:15.397Z,97236.44
2023-01-15T10:18:43.873Z,97265.19
2023-01-15T10:21:24.403Z,97257.00
2023-01-15T10:24:03.018Z,97255.63
2023-01-15T10:26:36.659Z,97250.91
2023-01-15T10:29:13.812Z,97247.94
2023-01-15T10:32:19.336Z,97232.34
2023-01-15T10:35:09.596Z,97244.31
2023-01-15T10:37:46.261Z,97233.19
2023-01-15T10:40:28.492Z,97240.13
2023-01-15T10:43:03.811Z,97242.88
2023-01-15T10:45:35.791Z,97244.81
2023-01-15T10:48:12.746Z,97237.97
2023-01-15T10:50:41.995Z,97239.38
2023-01-15T10:53:36.691Z,97233.53
2023-01-15T10:56:14.180Z,97235.97
2023-01-15T10:58:47.467Z,97233.31
2023-01-15T11:01:19.944Z,97222.66
2023-01-15T11:03:48.893Z,97233.28
2023-01-15T11:06:24.983Z,97238.03
2023-01-15T11:09:12.675Z,97239.38
2023-01-15T11:12:03.078Z,97231.91
2023-01-15T11:14:57.033Z,97235.13
2023-01-15T11:17:43.795Z,97237.47
2023-01-15T11:20:19.223Z,97233.47
2023-01-15T11:22:50.061Z,97226.31
2023-01-15T11:25:31.295Z,97209.59
2023-01-15T11:28:01.781Z,97225.28
2023-01-15T11:30:33.569Z,97225.00
2023-01-15T11:33:05.378Z,97235.03
2023-01-15T11:35:35.191Z,97239.00
2023-01-15T11:38:09.521Z,97238.16
2023-01-15T11:40:53.657Z,97230.38
2023-01-15T11:43:41.583Z,97242.25
2023-01-15T11:46:42.293Z,97229.94
2023-01-15T11:49:29.267Z,97227.75
2023-01-15T11:51:59.972Z,97226.88
2023-01-15T11:54:28.997Z,97217.84
2023-01-15T11:57:00.324Z,97198.16
2023-01-15T11:59:28.727Z,97215.38
2023-01-15T12:02:08.964Z,97197.59
2023-01-15T12:04:45.317Z,97213.03
2023-01-15T12:07:15.638Z,97214.16
2023-01-15T12:10:02.684Z,97213.16
2023-01-15T12:12:43.671Z,97217.19
2023-01-15T12:15:24.055Z,97213.19
2023-01-15T12:18:16.329Z,97203.13
2023-01-15T12:20:59.798Z,97218.63
2023-01-15T12:23:46.184Z,97205.38
2023-01-15T12:26:43.487Z,97214.38
2023-01-15T12:29:23.419Z,97222.34
2023-01-15T12:31:58.915Z,97225.00
2023-01-15T12:34:43.284Z,97209.31
2023-01-15T12:37:21.226Z,97205.09
2023-01-15T12:39:53.753Z,97202.63
2023-01-15T12:42:52.889Z,97197.00
2023-01-15T12:45:27.185Z,97193.19
2023-01-15T12:48:02.444Z,97192.91
2023-01-15T12:50:44.853Z,97185.94
2023-01-15T12:53:21.555Z,97203.63
2023-01-15T12:55:56.261Z,97204.41
2023-01-15T12:58:47.201Z,97192.38
2023-01-15T13:01:27.074Z,97188.09
2023-01-15T13:04:14.820Z,97181.97
2023-01-15T13:06:48.768Z,97192.03
2023-01-15T13:09:36.480Z,97192.22
2023-01-15T13:12:05.138Z,97191.72
2023-01-15T13:14:33.547Z,97185.59
2023-01-15T13:17:18.597Z,97176.31
2023-01-15T13:19:59.898Z,97177.63
2023-01-15T13:22:31.905Z,97178.09
2023-01-15T13:25:30.682Z,97166.22
2023-01-15T13:28:14.436Z,97170.88
2023-01-15T13:30:54.278Z,97172.19
2023-01-15T13:33:31.149Z,97175.84
2023-01-15T13:36:08.979Z,97171.00
2023-01-15T13:38:43.376Z,97189.00
2023-01-15T13:41:12.063Z,97167.41
2023-01-15T13:43:44.092Z,97177.47
2023-01-15T13:46:14.823Z,97165.50
2023-01-15T13:48:48.833Z,97170.56
2023-01-15T13:51:29.366Z,97157.31
2023-01-15T13:54:33.965Z,97156.28
2023-01-15T13:57:09.562Z,97160.22
2023-01-15T13:59:44.611Z,97146.97
2023-01-15T14:02:26.153Z,97146.97
2023-01-15T14:04:57.451Z,97141.59
2023-01-15T14:07:37.728Z,97128.28
2023-01-15T14:10:25.113Z,97137.22
2023-01-15T14:13:07.980Z,97130.81
2023-01-15T14:15:47.689Z,97140.84
2023-01-15T14:18:40.554Z,97150.91
2023-01-15T14:21:24.736Z,97141.63
2023-01-15T14:24:18.591Z,97139.44
2023-01-15T14:26:55.533Z,97125.88
2023-01-15T14:29:51.012Z,97137.25
2023-01-15T14:32:30.122Z,97128.41
2023-01-15T14:35:00.738Z,97120.41
2023-01-15T14:37:57.640Z,97124.59
2023-01-15T14:40:31.517Z,97124.03
2023-01-15T14:43:02.235Z,97110.47
2023-01-15T14:45:33.659Z,97114.41
2023-01-15T14:48:16.725Z,97117.38
2023-01-15T14:50:45.735Z,97112.00
2023-01-15T14:53:33.889Z,97104.06
2023-01-15T14:56:13.153Z,97119.94
2023-01-15T14:58:56.303Z,97116.25
2023-01-15T15:01:36.858Z,97119.72
2023-01-15T15:04:23.611Z,97109.44
2023-01-15T15:06:55.548Z,97105.75
2023-01-15T15:09:34.199Z,97107.34
2023-01-15T15:12:24.222Z,97099.91
2023-01-15T15:15:01.697Z,97118.25
2023-01-15T15:17:41.265Z,97116.66
2023-01-15T15:20:29.374Z,97098.38
2023-01-15T15:23:04.889Z,97096.19
2023-01-15T15:25:39.533Z,97100.38
2023-01-15T15:28:11.659Z,97088.13
2023-01-15T15:30:45.495Z,97088.88
2023-01-15T15:33:19.241Z,97077.34
2023-01-15T15:35:51.055Z,97092.41
2023-01-15T15:38:22.549Z,97076.72
2023-01-15T15:45:03.105Z,97079.06
2023-01-15T15:47:57.307Z,97081.34
2023-01-15T15:50:34.186Z,97070.91
2023-01-15T15:53:06.685Z,97070.81
2023-01-15T15:55:40.512Z,97070.78
2023-01-15T15:58:11.178Z,97063.31
2023-01-15T16:00:43.471Z,97074.59
2023-01-15T16:03:20.928Z,97064.53
2023-01-15T16:06:05.794Z,97050.41
2023-01-15T16:08:35.772Z,97055.47
2023-01-15T16:11:07.449Z,97048.81
2023-01-15T16:13:39.745Z,97039.84
2023-01-15T16:16:10.635Z,97036.63
2023-01-15T16:18:44.599Z,97029.97
2023-01-15T16:21:20.057Z,97033.13
2023-01-15T16:23:58.113Z,97023.84
2023-01-15T16:26:34.455Z,97013.25
2023-01-15T16:29:05.173Z,97014.06
2023-01-15T16:31:39.143Z,96989.72
2023-01-15T16:34:07.739Z,96991.31
2023-01-15T16:36:41.521Z,96996.59
2023-01-15T16:39:22.286Z,96986.03
2023-01-15T16:41:52.405Z,96983.41
2023-01-15T16:44:33.700Z,96988.19
2023-01-15T16:47:09.419Z,96968.91
2023-01-15T16:49:37.686Z,96962.31
2023-01-15T16:52:50.416Z,96975.84
2023-01-15T16:55:41.545Z,96988.34
2023-01-15T16:58:22.668Z,96986.50
2023-01-15T17:00:53.375Z,96985.13
2023-01-15T17:03:25.385Z,96997.06
2023-01-15T17:05:56.403Z,96996.03
2023-01-15T17:08:38.761Z,96989.16
2023-01-15T17:11:17.561Z,96978.25
2023-01-15T17:13:46.796Z,96978.56
2023-01-15T17:16:20.443Z,96969.59
2023-01-15T17:18:51.949Z,96974.16
2023-01-15T17:21:23.745Z,96942.50
2023-01-15T17:23:52.480Z,96966.44
2023-01-15T17:26:23.272Z,96935.09
2023-01-15T17:28:57.695Z,96943.16
2023-01-15T17:31:28.557Z,96943.50
2023-01-15T17:33:59.562Z,96939.09
2023-01-15T17:36:29.451Z,96946.03
2023-01-15T17:38:58.986Z,96926.22
2023-01-15T17:41:28.291Z,96929.41
2023-01-15T17:43:57.026Z,96936.38
2023-01-15T17:46:25.632Z,96914.69
2023-01-15T17:48:54.045Z,96919.72
2023-01-15T17:51:24.042Z,96907.00
2023-01-15T17:53:52.570Z,96898.81
2023-01-15T17:56:38.405Z,96883.94
2023-01-15T17:59:24.433Z,96883.44
2023-01-15T18:02:10.454Z,96873.09
2023-01-15T18:05:00.201Z,96868.06
2023-01-15T18:07:33.959Z,96863.00
2023-01-15T18:10:03.511Z,96861.97
2023-01-15T18:12:32.277Z,96857.47
2023-01-15T18:15:00.586Z,96834.16
2023-01-15T18:17:31.817Z,96843.13
2023-01-15T18:20:00.521Z,96838.66
2023-01-15T18:22:31.222Z,96822.53
2023-01-15T18:24:59.484Z,96829.66
2023-01-15T18:27:30.390Z,96817.47
2023-01-15T18:29:59.429Z,96805.31
2023-01-15T18:32:30.752Z,96797.13
2023-01-15T18:34:59.271Z,96803.69
2023-01-15T18:37:36.483Z,96797.06
2023-01-15T18:40:06.300Z,96786.75
2023-01-15T18:42:51.848Z,96790.47
2023-01-15T18:45:37.849Z,96793.91
2023-01-15T18:48:08.302Z,96787.03
2023-01-15T18:50:36.892Z,96779.34
2023-01-15T18:53:08.762Z,96774.59
2023-01-15T18:55:38.558Z,96753.69
2023-01-15T18:58:06.966Z,96744.69
2023-01-15T19:00:35.524Z,96743.66
2023-01-15T19:03:04.984Z,96724.56
2023-01-15T19:05:34.545Z,96736.22
2023-01-15T19:08:03.325Z,96743.91
2023-01-15T19:10:33.137Z,96738.84
2023-01-15T19:13:03.269Z,96737.81
2023-01-15T19:15:49.399Z,96738.59
2023-01-15T19:18:35.913Z,96732.81
2023-01-15T19:21:10.527Z,96714.28
2023-01-15T19:23:40.919Z,96723.84
2023-01-15T19:26:11.043Z,96718.00
2023-01-15T19:28:42.413Z,96715.34
2023-01-15T19:31:29.387Z,96699.16
2023-01-15T19:34:31.188Z,96708.47
2023-01-15T19:36:48.696Z,96685.69
2023-01-15T19:39:18.614Z,96703.47
2023-01-15T19:42:08.314Z,96675.16
2023-01-15T19:44:53.923Z,96683.66
2023-01-15T19:47:44.111Z,96676.25
2023-01-15T19:50:21.308Z,96674.41
2023-01-15T19:52:51.460Z,96671.75
2023-01-15T19:55:21.489Z,96668.81
2023-01-15T19:58:00.381Z,96674.09
2023-01-15T20:00:29.327Z,96662.44
2023-01-15T20:02:58.990Z,96672.50
2023-01-15T20:05:30.292Z,96665.91
2023-01-15T20:07:59.547Z,96664.06
2023-01-15T20:10:30.087Z,96660.38
2023-01-15T20:13:17.314Z,96659.81
2023-01-15T20:15:51.603Z,96645.81
2023-01-15T20:18:22.904Z,96668.84
2023-01-15T20:20:51.535Z,96657.19
2023-01-15T20:23:19.804Z,96669.13
2023-01-15T20:25:57.315Z,96655.59
2023-01-15T20:28:27.092Z,96654.25
2023-01-15T20:30:56.424Z,96659.00
2023-01-15T20:33:25.047Z,96661.38
2023-01-15T20:35:54.589Z,96655.28
2023-01-15T20:38:24.949Z,96653.44
2023-01-15T20:40:53.390Z,96657.44
2023-01-15T20:43:40.481Z,96652.16
2023-01-15T20:46:17.632Z,96643.66
2023-01-15T20:49:03.236Z,96640.22
2023-01-15T20:51:33.355Z,96650.00
2023-01-15T20:54:16.546Z,96643.38
2023-01-15T20:56:44.912Z,96636.22
2023-01-15T20:59:21.537Z,96635.06
2023-01-15T21:01:53.543Z,96640.09
2023-01-15T21:04:30.192Z,96643.84
2023-01-15T21:06:58.621Z,96631.41
2023-01-15T21:09:26.995Z,96635.13
2023-01-15T21:11:55.588Z,96633.53
2023-01-15T21:14:25.294Z,96638.56
2023-01-15T21:16:55.170Z,96632.22
2023-01-15T21:19:24.923Z,96631.72
2023-01-15T21:21:53.273Z,96645.44
2023-01-15T21:24:23.524Z,96644.66
2023-01-15T21:26:54.249Z,96649.94
2023-01-15T21:29:24.373Z,96658.44
2023-01-15T21:31:54.095Z,96655.00
2023-01-15T21:34:24.124Z,96650.50
2023-01-15T21:37:02.965Z,96652.34
2023-01-15T21:39:43.271Z,96642.31
2023-01-15T21:42:34.837Z,96660.59
2023-01-15T21:45:06.735Z,96647.06
2023-01-15T21:47:37.021Z,96657.69
2023-01-15T21:50:07.735Z,96659.81
2023-01-15T21:52:37.190Z,96671.22
2023-01-15T21:55:07.618Z,96657.72
2023-01-15T21:57:35.942Z,96654.03
2023-01-15T22:00:08.029Z,96653.75
2023-01-15T22:02:44.881Z,96670.19
2023-01-15T22:05:14.879Z,96665.19
2023-01-15T22:07:51.567Z,96657.50
2023-01-15T22:10:20.208Z,96645.84
2023-01-15T22:12:49.470Z,96662.03
2023-01-15T22:15:17.928Z,96677.13
2023-01-15T22:17:47.043Z,96667.56
2023-01-15T22:20:16.948Z,96674.16
2023-01-15T22:22:45.141Z,96667.78
2023-01-15T22:25:15.810Z,96673.59
2023-01-15T22:27:44.117Z,96655.59
2023-01-15T22:30:15.721Z,96676.47
2023-01-15T22:32:44.336Z,96681.75
2023-01-15T22:35:14.352Z,96686.78
2023-01-15T22:37:44.051Z,96689.47
2023-01-15T22:40:13.809Z,96692.41
2023-01-15T22:42:42.093Z,96682.66
2023-01-15T22:45:20.779Z,96686.34
2023-01-15T22:47:51.221Z,96682.69
2023-01-15T22:50:19.936Z,96689.84
2023-01-15T22:52:52.174Z,96689.59
2023-01-15T22:55:20.552Z,96701.53
2023-01-15T22:57:49.295Z,96681.91
2023-01-15T23:00:19.043Z,96687.78
2023-01-15T23:02:58.231Z,96678.50
2023-01-15T23:05:26.460Z,96696.53
2023-01-15T23:07:56.386Z,96699.97
2023-01-15T23:10:24.595Z,96694.69
2023-01-15T23:12:52.886Z,96705.78
2023-01-15T23:15:21.143Z,96710.28
2023-01-15T23:29:12.600Z,96737.56
2023-01-15T23:31:40.829Z,96735.47
2023-01-15T23:34:10.227Z,96732.31
2023-01-15T23:36:39.402Z,96728.63
2023-01-15T23:39:08.119Z,96729.47
2023-01-15T23:41:53.991Z,96744.00
2023-01-15T23:44:41.562Z,96746.16
2023-01-15T23:47:10.236Z,96744.00
2023-01-15T23:49:38.596Z,96737.66
2023-01-15T23:52:07.954Z,96744.59
2023-01-15T23:54:36.333Z,96751.00
2023-01-15T23:57:04.919Z,96760.25
2023-01-15T23:59:34.632Z,96757.09
